sensor_id;sensor_type;location;lat;lon;timestamp;P1;durP1;ratioP1;P2;durP2;ratioP2
4794;SDS011;2411;47.060;15.064;2022-11-24T00:01:19;2.20;;;1.77;;
4794;SDS011;2411;47.060;15.064;2022-11-24T00:03:51;1.60;;;1.50;;
4794;SDS011;2411;47.060;15.064;2022-11-24T00:06:20;2.90;;;2.70;;
4794;SDS011;2411;47.060;15.064;2022-11-24T00:08:48;1.30;;;1.20;;
4794;SDS011;2411;47.060;15.064;2022-11-24T00:11:16;1.77;;;0.93;;
4794;SDS011;2411;47.060;15.064;2022-11-24T00:13:45;1.73;;;1.30;;
4794;SDS011;2411;47.060;15.064;2022-11-24T00:18:45;0.93;;;0.83;;
4794;SDS011;2411;47.060;15.064;2022-11-24T00:21:13;0.70;;;0.70;;
4794;SDS011;2411;47.060;15.064;2022-11-24T00:23:41;1.20;;;1.10;;
4794;SDS011;2411;47.060;15.064;2022-11-24T00:26:10;1.47;;;1.10;;
4794;SDS011;2411;47.060;15.064;2022-11-24T00:28:39;0.70;;;0.70;;
4794;SDS011;2411;47.060;15.064;2022-11-24T00:31:15;1.13;;;1.10;;
4794;SDS011;2411;47.060;15.064;2022-11-24T00:33:51;1.00;;;1.00;;
4794;SDS011;2411;47.060;15.064;2022-11-24T00:36:20;3.00;;;2.47;;
4794;SDS011;2411;47.060;15.064;2022-11-24T00:38:52;1.20;;;1.10;;
4794;SDS011;2411;47.060;15.064;2022-11-24T00:41:21;0.70;;;0.70;;
4794;SDS011;2411;47.060;15.064;2022-11-24T00:43:50;0.60;;;0.60;;
4794;SDS011;2411;47.060;15.064;2022-11-24T00:46:18;0.60;;;0.60;;
4794;SDS011;2411;47.060;15.064;2022-11-24T00:48:46;0.90;;;0.90;;
4794;SDS011;2411;47.060;15.064;2022-11-24T00:51:14;1.50;;;0.90;;
4794;SDS011;2411;47.060;15.064;2022-11-24T00:53:43;0.93;;;0.80;;
4794;SDS011;2411;47.060;15.064;2022-11-24T00:56:10;0.90;;;0.90;;
4794;SDS011;2411;47.060;15.064;2022-11-24T00:58:38;0.70;;;0.70;;
4794;SDS011;2411;47.060;15.064;2022-11-24T01:01:07;139.47;;;7.23;;
4794;SDS011;2411;47.060;15.064;2022-11-24T01:03:42;110.57;;;4.83;;
4794;SDS011;2411;47.060;15.064;2022-11-24T01:06:11;245.50;;;11.30;;
4794;SDS011;2411;47.060;15.064;2022-11-24T01:08:44;23.43;;;1.50;;
4794;SDS011;2411;47.060;15.064;2022-11-24T01:11:16;2.50;;;1.10;;
4794;SDS011;2411;47.060;15.064;2022-11-24T01:13:44;0.77;;;0.77;;
4794;SDS011;2411;47.060;15.064;2022-11-24T01:16:18;0.63;;;0.63;;
4794;SDS011;2411;47.060;15.064;2022-11-24T01:18:47;1.70;;;1.00;;
4794;SDS011;2411;47.060;15.064;2022-11-24T01:21:15;0.60;;;0.60;;
4794;SDS011;2411;47.060;15.064;2022-11-24T01:23:42;0.90;;;0.90;;
4794;SDS011;2411;47.060;15.064;2022-11-24T01:26:11;1.20;;;1.03;;
4794;SDS011;2411;47.060;15.064;2022-11-24T01:28:43;4.73;;;1.10;;
4794;SDS011;2411;47.060;15.064;2022-11-24T01:31:13;77.27;;;3.83;;
4794;SDS011;2411;47.060;15.064;2022-11-24T01:33:41;2.10;;;1.07;;
4794;SDS011;2411;47.060;15.064;2022-11-24T01:36:08;0.90;;;0.90;;
4794;SDS011;2411;47.060;15.064;2022-11-24T01:38:36;0.50;;;0.50;;
4794;SDS011;2411;47.060;15.064;2022-11-24T01:41:04;0.60;;;0.60;;
4794;SDS011;2411;47.060;15.064;2022-11-24T01:43:34;0.63;;;0.63;;
4794;SDS011;2411;47.060;15.064;2022-11-24T01:46:47;0.70;;;0.70;;
4794;SDS011;2411;47.060;15.064;2022-11-24T01:49:02;0.60;;;0.60;;
4794;SDS011;2411;47.060;15.064;2022-11-24T01:51:56;0.70;;;0.70;;
4794;SDS011;2411;47.060;15.064;2022-11-24T01:54:27;0.70;;;0.60;;
4794;SDS011;2411;47.060;15.064;2022-11-24T01:56:59;0.60;;;0.60;;
4794;SDS011;2411;47.060;15.064;2022-11-24T01:59:35;0.63;;;0.63;;
4794;SDS011;2411;47.060;15.064;2022-11-24T02:02:03;0.70;;;0.70;;
4794;SDS011;2411;47.060;15.064;2022-11-24T02:04:31;0.80;;;0.80;;
4794;SDS011;2411;47.060;15.064;2022-11-24T02:07:00;1.17;;;0.90;;
4794;SDS011;2411;47.060;15.064;2022-11-24T02:09:31;2.73;;;0.87;;
4794;SDS011;2411;47.060;15.064;2022-11-24T02:12:09;22.17;;;1.27;;
4794;SDS011;2411;47.060;15.064;2022-11-24T02:14:37;2.50;;;1.00;;
4794;SDS011;2411;47.060;15.064;2022-11-24T02:17:07;6.10;;;1.20;;
4794;SDS011;2411;47.060;15.064;2022-11-24T02:25:23;0.70;;;0.70;;
4794;SDS011;2411;47.060;15.064;2022-11-24T02:27:51;0.80;;;0.80;;
4794;SDS011;2411;47.060;15.064;2022-11-24T02:30:21;0.90;;;0.90;;
4794;SDS011;2411;47.060;15.064;2022-11-24T02:32:49;3.23;;;0.90;;
4794;SDS011;2411;47.060;15.064;2022-11-24T02:35:18;0.77;;;0.77;;
4794;SDS011;2411;47.060;15.064;2022-11-24T02:37:45;0.63;;;0.63;;
4794;SDS011;2411;47.060;15.064;2022-11-24T02:40:14;2.40;;;1.77;;
4794;SDS011;2411;47.060;15.064;2022-11-24T02:42:43;1.53;;;1.40;;
4794;SDS011;2411;47.060;15.064;2022-11-24T02:45:12;2.20;;;1.70;;
4794;SDS011;2411;47.060;15.064;2022-11-24T02:47:42;3.97;;;1.97;;
4794;SDS011;2411;47.060;15.064;2022-11-24T02:50:09;3.53;;;2.13;;
4794;SDS011;2411;47.060;15.064;2022-11-24T02:52:36;1.43;;;1.30;;
4794;SDS011;2411;47.060;15.064;2022-11-24T02:55:04;1.10;;;1.00;;
4794;SDS011;2411;47.060;15.064;2022-11-24T02:57:31;9.93;;;1.57;;
4794;SDS011;2411;47.060;15.064;2022-11-24T02:59:58;1.37;;;1.20;;
4794;SDS011;2411;47.060;15.064;2022-11-24T03:02:26;0.80;;;0.80;;
4794;SDS011;2411;47.060;15.064;2022-11-24T03:04:53;5.00;;;2.10;;
4794;SDS011;2411;47.060;15.064;2022-11-24T03:07:20;2.30;;;2.10;;
4794;SDS011;2411;47.060;15.064;2022-11-24T03:09:48;1.17;;;1.00;;
4794;SDS011;2411;47.060;15.064;2022-11-24T03:12:15;1.27;;;1.10;;
4794;SDS011;2411;47.060;15.064;2022-11-24T03:14:43;1.10;;;1.10;;
4794;SDS011;2411;47.060;15.064;2022-11-24T03:17:10;2.73;;;1.27;;
4794;SDS011;2411;47.060;15.064;2022-11-24T03:19:37;4.13;;;1.57;;
4794;SDS011;2411;47.060;15.064;2022-11-24T03:22:04;2.00;;;1.43;;
4794;SDS011;2411;47.060;15.064;2022-11-24T03:24:32;1.73;;;1.23;;
4794;SDS011;2411;47.060;15.064;2022-11-24T03:26:59;3.23;;;1.40;;
4794;SDS011;2411;47.060;15.064;2022-11-24T03:29:26;4.20;;;1.43;;
4794;SDS011;2411;47.060;15.064;2022-11-24T03:31:54;4.30;;;1.53;;
4794;SDS011;2411;47.060;15.064;2022-11-24T03:34:21;1.80;;;1.20;;
4794;SDS011;2411;47.060;15.064;2022-11-24T03:36:48;1.27;;;1.13;;
4794;SDS011;2411;47.060;15.064;2022-11-24T03:39:15;2.50;;;1.10;;
4794;SDS011;2411;47.060;15.064;2022-11-24T03:41:42;1.60;;;1.43;;
4794;SDS011;2411;47.060;15.064;2022-11-24T03:44:09;1.47;;;1.30;;
4794;SDS011;2411;47.060;15.064;2022-11-24T03:46:36;1.30;;;1.10;;
4794;SDS011;2411;47.060;15.064;2022-11-24T03:49:04;1.90;;;1.53;;
4794;SDS011;2411;47.060;15.064;2022-11-24T03:51:31;7.00;;;2.40;;
4794;SDS011;2411;47.060;15.064;2022-11-24T03:53:58;1.70;;;1.60;;
4794;SDS011;2411;47.060;15.064;2022-11-24T03:56:25;1.60;;;1.50;;
4794;SDS011;2411;47.060;15.064;2022-11-24T03:58:53;2.60;;;2.07;;
4794;SDS011;2411;47.060;15.064;2022-11-24T04:01:20;1.90;;;1.80;;
4794;SDS011;2411;47.060;15.064;2022-11-24T04:03:47;2.20;;;1.60;;
4794;SDS011;2411;47.060;15.064;2022-11-24T04:06:15;1.80;;;1.70;;
4794;SDS011;2411;47.060;15.064;2022-11-24T04:08:42;2.10;;;1.50;;
4794;SDS011;2411;47.060;15.064;2022-11-24T04:11:09;1.47;;;1.37;;
4794;SDS011;2411;47.060;15.064;2022-11-24T04:13:56;1.20;;;1.10;;
4794;SDS011;2411;47.060;15.064;2022-11-24T04:16:23;2.03;;;1.20;;
4794;SDS011;2411;47.060;15.064;2022-11-24T04:18:51;7.40;;;1.77;;
4794;SDS011;2411;47.060;15.064;2022-11-24T04:21:19;1.70;;;1.10;;
4794;SDS011;2411;47.060;15.064;2022-11-24T04:23:46;0.63;;;0.63;;
4794;SDS011;2411;47.060;15.064;2022-11-24T04:26:14;1.27;;;0.90;;
4794;SDS011;2411;47.060;15.064;2022-11-24T04:28:41;1.33;;;1.23;;
4794;SDS011;2411;47.060;15.064;2022-11-24T04:31:08;2.90;;;1.53;;
4794;SDS011;2411;47.060;15.064;2022-11-24T04:33:35;2.63;;;1.10;;
4794;SDS011;2411;47.060;15.064;2022-11-24T04:36:03;0.90;;;0.90;;
4794;SDS011;2411;47.060;15.064;2022-11-24T04:38:30;1.37;;;1.27;;
4794;SDS011;2411;47.060;15.064;2022-11-24T04:41:17;0.73;;;0.70;;
4794;SDS011;2411;47.060;15.064;2022-11-24T04:43:44;1.03;;;1.00;;
4794;SDS011;2411;47.060;15.064;2022-11-24T04:46:15;2.00;;;1.13;;
4794;SDS011;2411;47.060;15.064;2022-11-24T04:48:42;0.90;;;0.90;;
4794;SDS011;2411;47.060;15.064;2022-11-24T04:51:10;1.23;;;0.90;;
4794;SDS011;2411;47.060;15.064;2022-11-24T04:53:39;6.63;;;0.90;;
4794;SDS011;2411;47.060;15.064;2022-11-24T04:56:06;0.97;;;0.97;;
4794;SDS011;2411;47.060;15.064;2022-11-24T04:58:34;1.60;;;0.90;;
4794;SDS011;2411;47.060;15.064;2022-11-24T05:01:05;1.00;;;1.00;;
4794;SDS011;2411;47.060;15.064;2022-11-24T05:03:34;2.77;;;1.00;;
4794;SDS011;2411;47.060;15.064;2022-11-24T05:06:01;2.63;;;1.10;;
4794;SDS011;2411;47.060;15.064;2022-11-24T05:08:29;1.90;;;1.57;;
4794;SDS011;2411;47.060;15.064;2022-11-24T05:10:56;1.30;;;1.20;;
4794;SDS011;2411;47.060;15.064;2022-11-24T05:13:28;1.80;;;0.90;;
4794;SDS011;2411;47.060;15.064;2022-11-24T05:15:56;1.20;;;1.20;;
4794;SDS011;2411;47.060;15.064;2022-11-24T05:18:25;0.80;;;0.80;;
4794;SDS011;2411;47.060;15.064;2022-11-24T05:20:52;1.23;;;1.23;;
4794;SDS011;2411;47.060;15.064;2022-11-24T05:23:20;1.00;;;1.00;;
4794;SDS011;2411;47.060;15.064;2022-11-24T05:25:47;1.07;;;1.07;;
4794;SDS011;2411;47.060;15.064;2022-11-24T05:28:14;1.80;;;1.43;;
4794;SDS011;2411;47.060;15.064;2022-11-24T05:30:42;1.47;;;1.37;;
4794;SDS011;2411;47.060;15.064;2022-11-24T05:33:11;0.93;;;0.80;;
4794;SDS011;2411;47.060;15.064;2022-11-24T05:35:45;1.83;;;1.73;;
4794;SDS011;2411;47.060;15.064;2022-11-24T05:38:13;0.90;;;0.90;;
4794;SDS011;2411;47.060;15.064;2022-11-24T05:40:41;2.07;;;1.77;;
4794;SDS011;2411;47.060;15.064;2022-11-24T05:43:12;6.37;;;2.50;;
4794;SDS011;2411;47.060;15.064;2022-11-24T05:45:40;1.27;;;1.27;;
4794;SDS011;2411;47.060;15.064;2022-11-24T05:48:12;2.50;;;1.30;;
4794;SDS011;2411;47.060;15.064;2022-11-24T05:50:41;1.17;;;1.17;;
4794;SDS011;2411;47.060;15.064;2022-11-24T05:53:10;1.20;;;1.20;;
4794;SDS011;2411;47.060;15.064;2022-11-24T05:55:38;1.80;;;1.70;;
4794;SDS011;2411;47.060;15.064;2022-11-24T05:58:07;1.67;;;1.40;;
4794;SDS011;2411;47.060;15.064;2022-11-24T06:00:35;1.63;;;1.53;;
4794;SDS011;2411;47.060;15.064;2022-11-24T06:03:03;1.20;;;1.20;;
4794;SDS011;2411;47.060;15.064;2022-11-24T06:05:30;1.33;;;1.30;;
4794;SDS011;2411;47.060;15.064;2022-11-24T06:07:58;1.53;;;1.50;;
4794;SDS011;2411;47.060;15.064;2022-11-24T06:10:26;1.20;;;1.20;;
4794;SDS011;2411;47.060;15.064;2022-11-24T06:12:53;1.80;;;1.30;;
4794;SDS011;2411;47.060;15.064;2022-11-24T06:15:21;0.97;;;0.97;;
4794;SDS011;2411;47.060;15.064;2022-11-24T06:17:52;1.60;;;1.50;;
4794;SDS011;2411;47.060;15.064;2022-11-24T06:20:20;1.23;;;1.13;;
4794;SDS011;2411;47.060;15.064;2022-11-24T06:22:58;2.33;;;2.17;;
4794;SDS011;2411;47.060;15.064;2022-11-24T06:25:26;3.37;;;1.40;;
4794;SDS011;2411;47.060;15.064;2022-11-24T06:27:54;1.97;;;1.77;;
4794;SDS011;2411;47.060;15.064;2022-11-24T06:30:21;4.53;;;1.80;;
4794;SDS011;2411;47.060;15.064;2022-11-24T06:32:52;3.20;;;1.63;;
4794;SDS011;2411;47.060;15.064;2022-11-24T06:35:20;2.00;;;1.73;;
4794;SDS011;2411;47.060;15.064;2022-11-24T06:37:47;2.80;;;1.90;;
4794;SDS011;2411;47.060;15.064;2022-11-24T06:40:14;1.63;;;1.53;;
4794;SDS011;2411;47.060;15.064;2022-11-24T06:42:42;3.10;;;1.90;;
4794;SDS011;2411;47.060;15.064;2022-11-24T06:45:16;1.43;;;1.43;;
4794;SDS011;2411;47.060;15.064;2022-11-24T06:47:43;1.93;;;1.73;;
4794;SDS011;2411;47.060;15.064;2022-11-24T06:50:11;2.83;;;2.70;;
4794;SDS011;2411;47.060;15.064;2022-11-24T06:52:38;8.30;;;2.47;;
4794;SDS011;2411;47.060;15.064;2022-11-24T06:55:05;3.33;;;2.67;;
4794;SDS011;2411;47.060;15.064;2022-11-24T06:57:33;3.63;;;3.33;;
4794;SDS011;2411;47.060;15.064;2022-11-24T07:00:01;3.17;;;2.80;;
4794;SDS011;2411;47.060;15.064;2022-11-24T07:02:30;3.10;;;2.80;;
4794;SDS011;2411;47.060;15.064;2022-11-24T07:04:57;3.97;;;3.60;;
4794;SDS011;2411;47.060;15.064;2022-11-24T07:07:24;4.00;;;3.57;;
4794;SDS011;2411;47.060;15.064;2022-11-24T07:09:51;3.60;;;3.30;;
4794;SDS011;2411;47.060;15.064;2022-11-24T07:12:18;5.10;;;3.00;;
4794;SDS011;2411;47.060;15.064;2022-11-24T07:14:45;2.53;;;2.33;;
4794;SDS011;2411;47.060;15.064;2022-11-24T07:17:13;3.30;;;2.40;;
4794;SDS011;2411;47.060;15.064;2022-11-24T07:19:40;2.00;;;1.90;;
4794;SDS011;2411;47.060;15.064;2022-11-24T07:22:07;3.73;;;2.03;;
4794;SDS011;2411;47.060;15.064;2022-11-24T07:24:34;2.63;;;2.10;;
4794;SDS011;2411;47.060;15.064;2022-11-24T07:27:02;1.80;;;1.70;;
4794;SDS011;2411;47.060;15.064;2022-11-24T07:29:29;2.00;;;1.90;;
4794;SDS011;2411;47.060;15.064;2022-11-24T07:31:56;2.03;;;1.87;;
4794;SDS011;2411;47.060;15.064;2022-11-24T07:34:31;3.50;;;2.67;;
4794;SDS011;2411;47.060;15.064;2022-11-24T07:36:58;2.93;;;2.33;;
4794;SDS011;2411;47.060;15.064;2022-11-24T07:39:25;2.03;;;1.83;;
4794;SDS011;2411;47.060;15.064;2022-11-24T07:41:53;2.57;;;1.47;;
4794;SDS011;2411;47.060;15.064;2022-11-24T07:44:20;3.40;;;3.10;;
4794;SDS011;2411;47.060;15.064;2022-11-24T07:46:47;4.00;;;2.10;;
4794;SDS011;2411;47.060;15.064;2022-11-24T07:49:16;2.13;;;2.03;;
4794;SDS011;2411;47.060;15.064;2022-11-24T07:51:44;2.10;;;2.00;;
4794;SDS011;2411;47.060;15.064;2022-11-24T07:54:11;2.23;;;2.10;;
4794;SDS011;2411;47.060;15.064;2022-11-24T07:56:39;2.67;;;2.47;;
4794;SDS011;2411;47.060;15.064;2022-11-24T07:59:06;2.40;;;2.20;;
4794;SDS011;2411;47.060;15.064;2022-11-24T08:01:33;3.70;;;2.70;;
4794;SDS011;2411;47.060;15.064;2022-11-24T08:04:00;3.20;;;3.00;;
4794;SDS011;2411;47.060;15.064;2022-11-24T08:06:28;4.17;;;2.67;;
4794;SDS011;2411;47.060;15.064;2022-11-24T08:09:06;2.70;;;2.50;;
4794;SDS011;2411;47.060;15.064;2022-11-24T08:11:33;3.13;;;2.87;;
4794;SDS011;2411;47.060;15.064;2022-11-24T08:14:00;3.10;;;2.50;;
4794;SDS011;2411;47.060;15.064;2022-11-24T08:16:27;5.17;;;3.70;;
4794;SDS011;2411;47.060;15.064;2022-11-24T08:18:54;4.97;;;4.10;;
4794;SDS011;2411;47.060;15.064;2022-11-24T08:21:22;7.50;;;4.00;;
4794;SDS011;2411;47.060;15.064;2022-11-24T08:23:53;8.97;;;5.80;;
4794;SDS011;2411;47.060;15.064;2022-11-24T08:26:21;5.20;;;4.20;;
4794;SDS011;2411;47.060;15.064;2022-11-24T08:28:55;3.77;;;3.47;;
4794;SDS011;2411;47.060;15.064;2022-11-24T08:31:23;3.53;;;2.97;;
4794;SDS011;2411;47.060;15.064;2022-11-24T08:33:58;4.70;;;4.20;;
4794;SDS011;2411;47.060;15.064;2022-11-24T08:36:25;4.03;;;3.70;;
4794;SDS011;2411;47.060;15.064;2022-11-24T08:38:53;6.03;;;4.57;;
4794;SDS011;2411;47.060;15.064;2022-11-24T08:41:22;15.87;;;6.40;;
4794;SDS011;2411;47.060;15.064;2022-11-24T08:43:50;11.63;;;6.47;;
4794;SDS011;2411;47.060;15.064;2022-11-24T08:46:17;12.37;;;6.63;;
4794;SDS011;2411;47.060;15.064;2022-11-24T08:48:49;10.20;;;5.40;;
4794;SDS011;2411;47.060;15.064;2022-11-24T08:51:18;9.03;;;6.00;;
4794;SDS011;2411;47.060;15.064;2022-11-24T08:53:47;7.30;;;5.20;;
4794;SDS011;2411;47.060;15.064;2022-11-24T08:56:14;9.40;;;5.80;;
4794;SDS011;2411;47.060;15.064;2022-11-24T08:58:41;10.10;;;7.20;;
4794;SDS011;2411;47.060;15.064;2022-11-24T09:01:13;10.60;;;6.43;;
4794;SDS011;2411;47.060;15.064;2022-11-24T09:03:42;8.67;;;6.40;;
4794;SDS011;2411;47.060;15.064;2022-11-24T09:06:20;6.27;;;5.63;;
4794;SDS011;2411;47.060;15.064;2022-11-24T09:08:52;13.57;;;5.63;;
4794;SDS011;2411;47.060;15.064;2022-11-24T09:11:20;7.13;;;4.80;;
4794;SDS011;2411;47.060;15.064;2022-11-24T09:13:47;6.80;;;6.07;;
4794;SDS011;2411;47.060;15.064;2022-11-24T09:16:22;15.63;;;5.73;;
4794;SDS011;2411;47.060;15.064;2022-11-24T09:18:56;5.90;;;5.40;;
4794;SDS011;2411;47.060;15.064;2022-11-24T09:21:28;5.33;;;4.10;;
4794;SDS011;2411;47.060;15.064;2022-11-24T09:23:56;7.30;;;4.47;;
4794;SDS011;2411;47.060;15.064;2022-11-24T09:26:27;6.87;;;4.53;;
4794;SDS011;2411;47.060;15.064;2022-11-24T09:28:57;5.57;;;4.10;;
4794;SDS011;2411;47.060;15.064;2022-11-24T09:31:26;8.20;;;4.27;;
4794;SDS011;2411;47.060;15.064;2022-11-24T09:33:55;4.60;;;4.20;;
4794;SDS011;2411;47.060;15.064;2022-11-24T09:36:23;8.60;;;5.00;;
4794;SDS011;2411;47.060;15.064;2022-11-24T09:38:50;5.73;;;4.60;;
4794;SDS011;2411;47.060;15.064;2022-11-24T09:46:58;5.97;;;4.17;;
4794;SDS011;2411;47.060;15.064;2022-11-24T09:49:37;4.40;;;4.00;;
4794;SDS011;2411;47.060;15.064;2022-11-24T09:52:18;4.80;;;4.27;;
4794;SDS011;2411;47.060;15.064;2022-11-24T09:54:53;5.30;;;4.27;;
4794;SDS011;2411;47.060;15.064;2022-11-24T09:57:25;4.30;;;4.00;;
4794;SDS011;2411;47.060;15.064;2022-11-24T10:00:05;8.37;;;5.20;;
4794;SDS011;2411;47.060;15.064;2022-11-24T10:02:37;5.00;;;3.70;;
4794;SDS011;2411;47.060;15.064;2022-11-24T10:05:05;3.90;;;3.60;;
4794;SDS011;2411;47.060;15.064;2022-11-24T10:07:35;16.93;;;4.33;;
4794;SDS011;2411;47.060;15.064;2022-11-24T10:10:16;10.80;;;4.87;;
4794;SDS011;2411;47.060;15.064;2022-11-24T10:12:57;6.50;;;2.40;;
4794;SDS011;2411;47.060;15.064;2022-11-24T10:16:11;2.77;;;2.33;;
4794;SDS011;2411;47.060;15.064;2022-11-24T10:22:11;2.40;;;2.20;;
4794;SDS011;2411;47.060;15.064;2022-11-24T10:28:00;2.47;;;0.60;;
4794;SDS011;2411;47.060;15.064;2022-11-24T10:30:29;1.90;;;0.60;;
4794;SDS011;2411;47.060;15.064;2022-11-24T10:32:58;0.40;;;0.40;;
4794;SDS011;2411;47.060;15.064;2022-11-24T10:35:39;0.50;;;0.50;;
4794;SDS011;2411;47.060;15.064;2022-11-24T10:41:20;0.70;;;0.60;;
4794;SDS011;2411;47.060;15.064;2022-11-24T10:43:59;1.13;;;0.50;;
4794;SDS011;2411;47.060;15.064;2022-11-24T10:46:26;0.93;;;0.70;;
4794;SDS011;2411;47.060;15.064;2022-11-24T10:48:56;2.80;;;0.60;;
4794;SDS011;2411;47.060;15.064;2022-11-24T10:53:54;0.60;;;0.53;;
4794;SDS011;2411;47.060;15.064;2022-11-24T10:56:45;2.73;;;0.70;;
4794;SDS011;2411;47.060;15.064;2022-11-24T11:01:53;1.67;;;0.80;;
4794;SDS011;2411;47.060;15.064;2022-11-24T11:04:24;1.53;;;0.60;;
4794;SDS011;2411;47.060;15.064;2022-11-24T11:07:07;0.50;;;0.50;;
4794;SDS011;2411;47.060;15.064;2022-11-24T11:09:48;0.50;;;0.50;;
4794;SDS011;2411;47.060;15.064;2022-11-24T11:12:22;3.53;;;0.80;;
4794;SDS011;2411;47.060;15.064;2022-11-24T11:17:49;0.50;;;0.50;;
4794;SDS011;2411;47.060;15.064;2022-11-24T11:20:21;2.40;;;2.00;;
4794;SDS011;2411;47.060;15.064;2022-11-24T11:22:58;1.33;;;0.50;;
4794;SDS011;2411;47.060;15.064;2022-11-24T11:25:32;0.50;;;0.50;;
4794;SDS011;2411;47.060;15.064;2022-11-24T11:28:18;0.97;;;0.50;;
4794;SDS011;2411;47.060;15.064;2022-11-24T11:30:58;8.20;;;0.60;;
4794;SDS011;2411;47.060;15.064;2022-11-24T11:33:56;0.60;;;0.60;;
4794;SDS011;2411;47.060;15.064;2022-11-24T11:36:42;0.77;;;0.77;;
4794;SDS011;2411;47.060;15.064;2022-11-24T11:39:19;1.10;;;0.67;;
4794;SDS011;2411;47.060;15.064;2022-11-24T11:45:05;1.40;;;1.00;;
4794;SDS011;2411;47.060;15.064;2022-11-24T11:47:40;2.20;;;0.63;;
4794;SDS011;2411;47.060;15.064;2022-11-24T11:50:25;1.37;;;0.50;;
4794;SDS011;2411;47.060;15.064;2022-11-24T12:09:49;1.90;;;0.50;;
4794;SDS011;2411;47.060;15.064;2022-11-24T12:17:54;0.53;;;0.53;;
4794;SDS011;2411;47.060;15.064;2022-11-24T12:26:36;0.60;;;0.60;;
4794;SDS011;2411;47.060;15.064;2022-11-24T12:32:41;0.50;;;0.50;;
4794;SDS011;2411;47.060;15.064;2022-11-24T12:48:01;6.57;;;0.60;;
4794;SDS011;2411;47.060;15.064;2022-11-24T12:50:36;0.70;;;0.50;;
4794;SDS011;2411;47.060;15.064;2022-11-24T12:53:12;2.30;;;0.60;;
4794;SDS011;2411;47.060;15.064;2022-11-24T12:55:42;1.00;;;0.50;;
4794;SDS011;2411;47.060;15.064;2022-11-24T13:06:17;0.60;;;0.60;;
4794;SDS011;2411;47.060;15.064;2022-11-24T13:08:45;0.83;;;0.57;;
4794;SDS011;2411;47.060;15.064;2022-11-24T13:16:26;1.00;;;0.50;;
4794;SDS011;2411;47.060;15.064;2022-11-24T13:19:52;0.90;;;0.50;;
4794;SDS011;2411;47.060;15.064;2022-11-24T13:24:33;0.80;;;0.60;;
4794;SDS011;2411;47.060;15.064;2022-11-24T13:29:40;0.90;;;0.50;;
4794;SDS011;2411;47.060;15.064;2022-11-24T13:37:18;1.20;;;0.63;;
4794;SDS011;2411;47.060;15.064;2022-11-24T13:58:29;2.90;;;0.80;;
4794;SDS011;2411;47.060;15.064;2022-11-24T14:14:39;2.43;;;0.70;;
4794;SDS011;2411;47.060;15.064;2022-11-24T14:19:52;1.27;;;0.60;;
4794;SDS011;2411;47.060;15.064;2022-11-24T14:25:00;1.40;;;0.70;;
4794;SDS011;2411;47.060;15.064;2022-11-24T14:27:36;0.60;;;0.60;;
4794;SDS011;2411;47.060;15.064;2022-11-24T14:30:16;0.60;;;0.50;;
4794;SDS011;2411;47.060;15.064;2022-11-24T14:33:20;0.70;;;0.60;;
4794;SDS011;2411;47.060;15.064;2022-11-24T14:35:42;2.50;;;0.90;;
4794;SDS011;2411;47.060;15.064;2022-11-24T14:38:11;0.90;;;0.67;;
4794;SDS011;2411;47.060;15.064;2022-11-24T14:40:40;2.80;;;0.87;;
4794;SDS011;2411;47.060;15.064;2022-11-24T14:43:22;0.70;;;0.60;;
4794;SDS011;2411;47.060;15.064;2022-11-24T14:45:58;1.23;;;1.10;;
4794;SDS011;2411;47.060;15.064;2022-11-24T14:48:34;0.90;;;0.63;;
4794;SDS011;2411;47.060;15.064;2022-11-24T14:54:00;1.93;;;0.97;;
4794;SDS011;2411;47.060;15.064;2022-11-24T14:56:36;0.90;;;0.60;;
4794;SDS011;2411;47.060;15.064;2022-11-24T15:02:02;7.07;;;0.80;;
4794;SDS011;2411;47.060;15.064;2022-11-24T15:04:55;4.13;;;0.93;;
4794;SDS011;2411;47.060;15.064;2022-11-24T15:07:29;3.03;;;0.97;;
4794;SDS011;2411;47.060;15.064;2022-11-24T15:14:59;2.60;;;0.50;;
4794;SDS011;2411;47.060;15.064;2022-11-24T15:17:29;3.00;;;1.43;;
4794;SDS011;2411;47.060;15.064;2022-11-24T15:19:57;0.70;;;0.70;;
4794;SDS011;2411;47.060;15.064;2022-11-24T15:22:36;3.00;;;1.10;;
4794;SDS011;2411;47.060;15.064;2022-11-24T15:27:56;2.97;;;1.40;;
4794;SDS011;2411;47.060;15.064;2022-11-24T15:30:23;3.17;;;2.10;;
4794;SDS011;2411;47.060;15.064;2022-11-24T15:35:19;4.90;;;2.90;;
4794;SDS011;2411;47.060;15.064;2022-11-24T15:37:48;6.90;;;3.50;;
4794;SDS011;2411;47.060;15.064;2022-11-24T15:40:16;5.33;;;2.77;;
4794;SDS011;2411;47.060;15.064;2022-11-24T15:42:51;3.53;;;2.80;;
4794;SDS011;2411;47.060;15.064;2022-11-24T15:45:22;4.30;;;2.73;;
4794;SDS011;2411;47.060;15.064;2022-11-24T15:47:51;4.33;;;3.00;;
4794;SDS011;2411;47.060;15.064;2022-11-24T15:50:19;3.53;;;2.60;;
4794;SDS011;2411;47.060;15.064;2022-11-24T15:52:47;5.53;;;3.23;;
4794;SDS011;2411;47.060;15.064;2022-11-24T15:55:18;4.90;;;2.90;;
4794;SDS011;2411;47.060;15.064;2022-11-24T15:57:47;2.40;;;1.73;;
4794;SDS011;2411;47.060;15.064;2022-11-24T16:00:15;1.70;;;1.60;;
4794;SDS011;2411;47.060;15.064;2022-11-24T16:02:44;3.23;;;1.60;;
4794;SDS011;2411;47.060;15.064;2022-11-24T16:05:12;1.60;;;1.50;;
4794;SDS011;2411;47.060;15.064;2022-11-24T16:07:40;3.13;;;1.87;;
4794;SDS011;2411;47.060;15.064;2022-11-24T16:10:29;2.10;;;1.90;;
4794;SDS011;2411;47.060;15.064;2022-11-24T16:12:56;3.60;;;2.30;;
4794;SDS011;2411;47.060;15.064;2022-11-24T16:15:23;2.33;;;2.13;;
4794;SDS011;2411;47.060;15.064;2022-11-24T16:17:51;0.83;;;0.80;;
4794;SDS011;2411;47.060;15.064;2022-11-24T16:20:18;2.37;;;0.67;;
4794;SDS011;2411;47.060;15.064;2022-11-24T16:22:46;0.50;;;0.50;;
4794;SDS011;2411;47.060;15.064;2022-11-24T16:25:13;1.10;;;0.70;;
4794;SDS011;2411;47.060;15.064;2022-11-24T16:27:40;4.23;;;3.00;;
4794;SDS011;2411;47.060;15.064;2022-11-24T16:30:09;13.37;;;8.03;;
4794;SDS011;2411;47.060;15.064;2022-11-24T16:32:37;9.73;;;5.20;;
4794;SDS011;2411;47.060;15.064;2022-11-24T16:35:04;4.87;;;2.20;;
4794;SDS011;2411;47.060;15.064;2022-11-24T16:37:32;2.10;;;1.40;;
4794;SDS011;2411;47.060;15.064;2022-11-24T16:39:59;18.37;;;7.97;;
4794;SDS011;2411;47.060;15.064;2022-11-24T16:42:28;17.73;;;11.13;;
4794;SDS011;2411;47.060;15.064;2022-11-24T16:44:56;13.40;;;6.97;;
4794;SDS011;2411;47.060;15.064;2022-11-24T16:47:23;18.77;;;10.40;;
4794;SDS011;2411;47.060;15.064;2022-11-24T16:49:50;21.60;;;10.67;;
4794;SDS011;2411;47.060;15.064;2022-11-24T16:52:17;11.33;;;7.17;;
4794;SDS011;2411;47.060;15.064;2022-11-24T16:54:45;8.07;;;4.70;;
4794;SDS011;2411;47.060;15.064;2022-11-24T16:57:13;11.87;;;6.90;;
4794;SDS011;2411;47.060;15.064;2022-11-24T16:59:41;22.90;;;9.80;;
4794;SDS011;2411;47.060;15.064;2022-11-24T17:02:10;16.70;;;9.63;;
4794;SDS011;2411;47.060;15.064;2022-11-24T17:04:38;15.70;;;8.93;;
4794;SDS011;2411;47.060;15.064;2022-11-24T17:07:05;17.10;;;9.13;;
4794;SDS011;2411;47.060;15.064;2022-11-24T17:09:33;12.60;;;8.50;;
4794;SDS011;2411;47.060;15.064;2022-11-24T17:12:06;16.67;;;9.70;;
4794;SDS011;2411;47.060;15.064;2022-11-24T17:14:33;29.80;;;17.30;;
4794;SDS011;2411;47.060;15.064;2022-11-24T17:17:01;31.40;;;16.50;;
4794;SDS011;2411;47.060;15.064;2022-11-24T17:19:30;25.40;;;15.90;;
4794;SDS011;2411;47.060;15.064;2022-11-24T17:21:58;22.13;;;13.80;;
4794;SDS011;2411;47.060;15.064;2022-11-24T17:24:25;21.10;;;12.90;;
4794;SDS011;2411;47.060;15.064;2022-11-24T17:26:52;18.90;;;12.63;;
4794;SDS011;2411;47.060;15.064;2022-11-24T17:29:20;18.23;;;12.53;;
4794;SDS011;2411;47.060;15.064;2022-11-24T17:31:47;14.67;;;9.00;;
4794;SDS011;2411;47.060;15.064;2022-11-24T17:34:14;11.30;;;7.20;;
4794;SDS011;2411;47.060;15.064;2022-11-24T17:36:42;14.30;;;9.53;;
4794;SDS011;2411;47.060;15.064;2022-11-24T17:39:11;15.33;;;9.67;;
4794;SDS011;2411;47.060;15.064;2022-11-24T17:41:39;11.80;;;9.00;;
4794;SDS011;2411;47.060;15.064;2022-11-24T17:44:06;14.97;;;9.70;;
4794;SDS011;2411;47.060;15.064;2022-11-24T17:46:35;13.97;;;9.57;;
4794;SDS011;2411;47.060;15.064;2022-11-24T17:49:03;18.10;;;10.63;;
4794;SDS011;2411;47.060;15.064;2022-11-24T17:51:32;19.97;;;12.30;;
4794;SDS011;2411;47.060;15.064;2022-11-24T17:53:59;19.43;;;12.93;;